Time;durP1;ratioP1;P1;durP2;ratioP2;P2;SDS_P1;SDS_P2;PMS_P1;PMS_P2;Temp;Humidity;BMP_temperature;BMP_pressure;BME280_temperature;BME280_humidity;BME280_pressure;Samples;Min_cycle;Max_cycle;Signal;HPM_P1;HPM_P2
2021/12/19 00:00:06;;;;;;;27.90;17.17;;;;;;;;;;4996175;28;20083;-74
2021/12/19 00:08:35;;;;;;;27.05;16.08;;;;;;;;;;4994676;28;20795;-78
2021/12/19 00:11:02;;;;;;;26.60;16.67;;;;;;;;;;4993774;28;21237;-75
2021/12/19 00:13:28;;;;;;;27.33;15.98;;;;;;;;;;5007465;28;20504;-75
2021/12/19 00:15:55;;;;;;;28.63;17.25;;;;;;;;;;4993246;28;20133;-75
2021/12/19 00:18:22;;;;;;;26.40;16.50;;;;;;;;;;5012670;28;20059;-76
2021/12/19 00:20:49;;;;;;;26.55;16.95;;;;;;;;;;4997352;28;20048;-73
2021/12/19 00:23:16;;;;;;;23.65;15.43;;;;;;;;;;5007277;28;20049;-73
2021/12/19 00:25:43;;;;;;;22.48;15.68;;;;;;;;;;5008891;28;20062;-73
2021/12/19 00:28:09;;;;;;;23.88;15.98;;;;;;;;;;4993978;28;20569;-73
2021/12/19 00:30:35;;;;;;;22.33;15.88;;;;;;;;;;5011736;28;20049;-73
2021/12/19 00:33:02;;;;;;;24.70;16.92;;;;;;;;;;4987665;28;20103;-77
2021/12/19 00:35:28;;;;;;;26.63;15.43;;;;;;;;;;4993194;28;20345;-75
2021/12/19 00:37:54;;;;;;;27.10;16.00;;;;;;;;;;4992125;28;20111;-77
2021/12/19 00:40:21;;;;;;;26.80;15.98;;;;;;;;;;5009697;28;20057;-78
2021/12/19 00:42:52;;;;;;;26.55;16.50;;;;;;;;;;4986981;28;20121;-75
2021/12/19 00:45:30;;;;;;;23.65;16.08;;;;;;;;;;5007741;28;20140;-75
2021/12/19 00:47:57;;;;;;;23.38;16.50;;;;;;;;;;4976006;28;20064;-75
2021/12/19 00:50:25;;;;;;;26.13;16.48;;;;;;;;;;5010157;28;20061;-78
2021/12/19 00:52:51;;;;;;;26.33;16.45;;;;;;;;;;5006374;28;20064;-75
2021/12/19 00:55:19;;;;;;;26.80;16.77;;;;;;;;;;4992635;28;20410;-74
2021/12/19 00:57:47;;;;;;;24.40;16.58;;;;;;;;;;5009789;28;20265;-73
2021/12/19 01:00:17;;;;;;;26.52;17.35;;;;;;;;;;5008879;28;20139;-76
2021/12/19 01:02:43;;;;;;;25.80;17.08;;;;;;;;;;5006153;28;20064;-73
2021/12/19 01:05:10;;;;;;;27.77;17.15;;;;;;;;;;5008461;28;20077;-73
2021/12/19 01:07:36;;;;;;;29.27;17.63;;;;;;;;;;5009094;28;20053;-76
2021/12/19 01:10:06;;;;;;;25.23;15.63;;;;;;;;;;5013408;28;20065;-77
2021/12/19 01:12:33;;;;;;;23.75;16.48;;;;;;;;;;5004261;28;20054;-75
2021/12/19 01:14:59;;;;;;;24.05;16.58;;;;;;;;;;5009989;28;20053;-77
2021/12/19 01:17:25;;;;;;;23.10;15.20;;;;;;;;;;4996400;28;20041;-74
2021/12/19 01:19:52;;;;;;;25.45;16.55;;;;;;;;;;5012789;28;20102;-76
2021/12/19 01:22:18;;;;;;;28.08;15.43;;;;;;;;;;4988617;28;20049;-76
2021/12/19 01:24:44;;;;;;;27.05;16.70;;;;;;;;;;5009571;28;20064;-74
2021/12/19 01:27:10;;;;;;;27.35;15.88;;;;;;;;;;4992490;28;20887;-74
2021/12/19 01:29:37;;;;;;;26.13;16.27;;;;;;;;;;5009970;28;20099;-77
2021/12/19 01:32:03;;;;;;;24.60;15.52;;;;;;;;;;4993175;28;20060;-74
2021/12/19 01:34:29;;;;;;;28.90;15.60;;;;;;;;;;4997874;28;20052;-75
2021/12/19 01:36:57;;;;;;;25.50;15.20;;;;;;;;;;5013183;28;20049;-76
2021/12/19 01:39:24;;;;;;;23.55;15.23;;;;;;;;;;5012164;28;20120;-79
2021/12/19 01:41:53;;;;;;;24.65;14.43;;;;;;;;;;5009985;28;20064;-77
2021/12/19 01:44:20;;;;;;;19.55;13.95;;;;;;;;;;4989041;28;20061;-76
2021/12/19 01:46:47;;;;;;;23.35;14.63;;;;;;;;;;4995087;28;20053;-76
2021/12/19 01:49:14;;;;;;;25.45;14.48;;;;;;;;;;4994272;28;20053;-76
2021/12/19 01:51:41;;;;;;;19.50;13.88;;;;;;;;;;5005803;28;20073;-74
2021/12/19 01:54:08;;;;;;;29.23;12.88;;;;;;;;;;5011001;28;20407;-77
2021/12/19 01:56:34;;;;;;;20.65;12.88;;;;;;;;;;4992621;28;20046;-74
2021/12/19 01:59:00;;;;;;;20.20;12.75;;;;;;;;;;5011175;28;20253;-76
2021/12/19 02:01:27;;;;;;;18.00;11.70;;;;;;;;;;5008171;28;20068;-72
2021/12/19 02:03:53;;;;;;;16.42;11.43;;;;;;;;;;5014658;28;20076;-75
2021/12/19 02:06:19;;;;;;;14.80;10.98;;;;;;;;;;4998069;28;20046;-76
2021/12/19 02:08:49;;;;;;;17.00;11.32;;;;;;;;;;5015323;28;20168;-75
2021/12/19 02:11:16;;;;;;;15.77;11.10;;;;;;;;;;5007908;28;20080;-74
2021/12/19 02:13:42;;;;;;;18.05;12.23;;;;;;;;;;5011573;28;20424;-73
2021/12/19 02:16:09;;;;;;;18.27;12.65;;;;;;;;;;4977557;28;20112;-78
2021/12/19 02:18:36;;;;;;;22.88;12.40;;;;;;;;;;5010569;28;20050;-73
2021/12/19 02:21:02;;;;;;;20.65;13.10;;;;;;;;;;4975641;28;20128;-75
2021/12/19 02:23:29;;;;;;;16.85;11.98;;;;;;;;;;5008372;28;20053;-74
2021/12/19 02:25:56;;;;;;;19.10;12.23;;;;;;;;;;5011367;28;20415;-75
2021/12/19 02:28:23;;;;;;;22.10;12.20;;;;;;;;;;4996632;28;20128;-76
2021/12/19 02:30:50;;;;;;;22.10;12.73;;;;;;;;;;4994440;28;20065;-76
2021/12/19 02:33:21;;;;;;;22.52;12.95;;;;;;;;;;4991646;28;20051;-75
2021/12/19 02:35:57;;;;;;;16.98;11.93;;;;;;;;;;4995965;28;20482;-73
2021/12/19 02:49:23;;;;;;;17.05;11.40;;;;;;;;;;5013882;28;20061;-77
2021/12/19 02:51:52;;;;;;;17.50;12.60;;;;;;;;;;4988468;28;20144;-76
2021/12/19 02:54:19;;;;;;;18.98;12.00;;;;;;;;;;4977020;28;20061;-73
2021/12/19 02:56:45;;;;;;;20.17;12.02;;;;;;;;;;4992783;28;20187;-77
2021/12/19 02:59:11;;;;;;;18.73;12.50;;;;;;;;;;5011583;28;20061;-72
2021/12/19 03:01:37;;;;;;;21.33;12.32;;;;;;;;;;5005244;28;20049;-73
2021/12/19 03:04:06;;;;;;;19.48;12.00;;;;;;;;;;4976580;28;20097;-74
2021/12/19 03:06:32;;;;;;;17.42;11.80;;;;;;;;;;4975993;28;20057;-73
2021/12/19 03:09:04;;;;;;;18.33;12.30;;;;;;;;;;4992351;28;20049;-76
2021/12/19 03:12:49;;;;;;;21.63;11.98;;;;;;;;;;5003225;28;20057;-72
2021/12/19 03:19:56;;;;;;;;;;;;;;;;;;4991901;28;20981;-76
2021/12/19 03:22:23;;;;;;;17.77;11.35;;;;;;;;;;4987677;28;20325;-74
2021/12/19 03:24:51;;;;;;;20.15;12.52;;;;;;;;;;5010945;28;20487;-76
2021/12/19 03:27:18;;;;;;;19.42;12.63;;;;;;;;;;5010309;28;20196;-74
2021/12/19 03:29:44;;;;;;;17.65;12.43;;;;;;;;;;4990893;28;20085;-73
2021/12/19 03:32:10;;;;;;;22.25;11.98;;;;;;;;;;4986753;28;20366;-75
2021/12/19 03:34:36;;;;;;;17.75;12.35;;;;;;;;;;4990722;28;20764;-72
2021/12/19 03:37:03;;;;;;;20.20;12.50;;;;;;;;;;5006734;28;20497;-74
2021/12/19 03:39:37;;;;;;;15.38;11.88;;;;;;;;;;5007973;28;20091;-75
2021/12/19 03:42:04;;;;;;;19.10;13.10;;;;;;;;;;5003689;28;20045;-75
2021/12/19 03:44:30;;;;;;;18.27;12.55;;;;;;;;;;5008935;28;20232;-73
2021/12/19 03:46:57;;;;;;;17.23;12.02;;;;;;;;;;5010303;28;20154;-76
2021/12/19 03:49:24;;;;;;;22.00;13.05;;;;;;;;;;4991645;28;20049;-77
2021/12/19 03:51:50;;;;;;;23.67;12.75;;;;;;;;;;5005973;28;20518;-76
2021/12/19 03:54:16;;;;;;;20.33;12.95;;;;;;;;;;4994382;28;20045;-78
2021/12/19 03:56:43;;;;;;;20.23;12.73;;;;;;;;;;4990726;28;20045;-73
2021/12/19 03:59:08;;;;;;;18.85;12.18;;;;;;;;;;4992792;28;20473;-78
2021/12/19 04:01:35;;;;;;;18.15;12.25;;;;;;;;;;5006794;28;20053;-73
2021/12/19 04:04:02;;;;;;;17.92;10.90;;;;;;;;;;4991696;28;20487;-74
2021/12/19 04:06:28;;;;;;;17.23;12.05;;;;;;;;;;5007515;28;20045;-77
2021/12/19 04:08:56;;;;;;;20.42;12.82;;;;;;;;;;4990654;28;20049;-75
2021/12/19 04:11:24;;;;;;;22.02;13.85;;;;;;;;;;5006322;28;20196;-75
2021/12/19 04:13:51;;;;;;;19.38;13.25;;;;;;;;;;4992991;28;20495;-75
2021/12/19 04:16:17;;;;;;;18.73;12.10;;;;;;;;;;4991387;28;20133;-76
2021/12/19 04:18:43;;;;;;;22.02;13.27;;;;;;;;;;5010283;28;20071;-75
2021/12/19 04:21:09;;;;;;;19.67;13.00;;;;;;;;;;5006297;28;20118;-75
2021/12/19 04:23:36;;;;;;;17.23;12.13;;;;;;;;;;5005638;28;20069;-72
2021/12/19 04:26:02;;;;;;;21.65;12.60;;;;;;;;;;5008694;28;20511;-73
2021/12/19 04:28:28;;;;;;;19.10;12.25;;;;;;;;;;4992182;28;20099;-75
2021/12/19 04:30:54;;;;;;;17.48;12.10;;;;;;;;;;4975554;28;20071;-75
2021/12/19 04:33:22;;;;;;;19.45;13.52;;;;;;;;;;4988734;28;20143;-77
2021/12/19 04:35:48;;;;;;;20.95;12.50;;;;;;;;;;4992450;28;20639;-76
2021/12/19 04:54:51;;;;;;;23.73;15.10;;;;;;;;;;4993407;28;20053;-75
2021/12/19 04:57:30;;;;;;;22.85;14.25;;;;;;;;;;5008071;28;20556;-74
2021/12/19 05:15:57;;;;;;;;;;;;;;;;;;4990800;28;20128;-76
2021/12/19 05:18:27;;;;;;;28.63;15.93;;;;;;;;;;4975216;28;20486;-74
2021/12/19 05:21:01;;;;;;;25.48;14.82;;;;;;;;;;5007470;28;20049;-76
2021/12/19 05:25:56;;;;;;;27.70;15.57;;;;;;;;;;5006605;28;20640;-74
2021/12/19 05:28:22;;;;;;;25.67;15.93;;;;;;;;;;5006991;28;20212;-76
2021/12/19 05:30:49;;;;;;;25.10;16.15;;;;;;;;;;5009362;28;20104;-77
2021/12/19 05:33:16;;;;;;;26.08;15.77;;;;;;;;;;4988075;28;20135;-73
2021/12/19 05:36:01;;;;;;;30.23;15.48;;;;;;;;;;4988939;28;20580;-74
2021/12/19 05:44:12;;;;;;;25.95;15.98;;;;;;;;;;5005914;28;20057;-76
2021/12/19 05:46:46;;;;;;;27.80;16.08;;;;;;;;;;5007744;28;20081;-76
2021/12/19 05:49:12;;;;;;;31.30;15.95;;;;;;;;;;5006292;28;20487;-74
2021/12/19 05:51:39;;;;;;;26.55;15.57;;;;;;;;;;5004063;28;20199;-75
2021/12/19 05:54:06;;;;;;;26.52;16.27;;;;;;;;;;5008442;28;20062;-73
2021/12/19 05:56:32;;;;;;;26.98;15.80;;;;;;;;;;5008187;28;20059;-75
2021/12/19 05:58:59;;;;;;;24.13;16.00;;;;;;;;;;4990416;28;20050;-75
2021/12/19 06:01:25;;;;;;;25.92;16.67;;;;;;;;;;4971633;28;20088;-75
2021/12/19 06:03:51;;;;;;;32.15;15.27;;;;;;;;;;4990533;28;20046;-76
2021/12/19 06:06:17;;;;;;;25.55;15.25;;;;;;;;;;4991185;28;20623;-77
2021/12/19 06:08:43;;;;;;;23.98;15.38;;;;;;;;;;5008069;28;20948;-78
2021/12/19 06:11:10;;;;;;;34.20;16.50;;;;;;;;;;5004322;28;20057;-77
2021/12/19 06:13:37;;;;;;;30.92;15.52;;;;;;;;;;4988019;28;20068;-74
2021/12/19 06:16:05;;;;;;;28.73;16.15;;;;;;;;;;5006525;28;20092;-73
2021/12/19 06:18:31;;;;;;;25.60;15.43;;;;;;;;;;4989298;28;20128;-74
2021/12/19 06:20:57;;;;;;;27.25;16.15;;;;;;;;;;4978495;28;20635;-78
2021/12/19 06:23:23;;;;;;;27.85;15.63;;;;;;;;;;4991026;28;20080;-78
2021/12/19 06:25:49;;;;;;;23.77;15.18;;;;;;;;;;5011710;28;20049;-79
2021/12/19 06:28:17;;;;;;;23.95;16.23;;;;;;;;;;5011067;28;20060;-78
2021/12/19 06:30:44;;;;;;;25.40;14.90;;;;;;;;;;4994996;28;20060;-73
2021/12/19 06:33:10;;;;;;;27.02;16.08;;;;;;;;;;5008226;28;20103;-76
2021/12/19 06:35:36;;;;;;;27.10;15.43;;;;;;;;;;4989260;28;21304;-73
2021/12/19 06:38:03;;;;;;;28.42;15.38;;;;;;;;;;5009986;28;20820;-76
2021/12/19 06:40:29;;;;;;;24.75;15.80;;;;;;;;;;4986057;28;20042;-74
2021/12/19 06:42:56;;;;;;;26.75;16.73;;;;;;;;;;5007735;28;20069;-75
2021/12/19 06:45:23;;;;;;;29.13;16.42;;;;;;;;;;5011197;28;20148;-75
2021/12/19 06:47:49;;;;;;;30.52;16.95;;;;;;;;;;5011426;28;20098;-78
2021/12/19 06:50:17;;;;;;;28.17;17.33;;;;;;;;;;5011101;28;21798;-74
2021/12/19 06:52:46;;;;;;;27.60;16.65;;;;;;;;;;5004969;28;20441;-73
2021/12/19 06:55:14;;;;;;;28.88;16.38;;;;;;;;;;4992510;28;20061;-76
2021/12/19 06:57:41;;;;;;;25.40;16.92;;;;;;;;;;5009589;28;20045;-74
2021/12/19 07:00:10;;;;;;;26.23;16.35;;;;;;;;;;4982855;28;20127;-74
2021/12/19 07:02:36;;;;;;;23.83;15.90;;;;;;;;;;5005812;28;20061;-75
2021/12/19 07:05:03;;;;;;;24.85;16.23;;;;;;;;;;4990122;28;20407;-73
2021/12/19 07:07:29;;;;;;;24.70;16.05;;;;;;;;;;4991565;28;20045;-75
2021/12/19 07:09:55;;;;;;;27.05;16.35;;;;;;;;;;4993344;28;20054;-76
2021/12/19 07:12:26;;;;;;;28.50;17.88;;;;;;;;;;5006825;28;20100;-79
2021/12/19 07:14:57;;;;;;;27.02;16.55;;;;;;;;;;5009934;28;20073;-78
2021/12/19 07:17:23;;;;;;;21.73;15.13;;;;;;;;;;4992165;28;20132;-75
2021/12/19 07:19:50;;;;;;;25.55;16.35;;;;;;;;;;5011030;28;20059;-76
2021/12/19 07:22:18;;;;;;;22.20;15.20;;;;;;;;;;5007207;28;21317;-74
2021/12/19 07:24:45;;;;;;;24.23;15.40;;;;;;;;;;4990633;28;20064;-78
2021/12/19 07:27:13;;;;;;;24.95;15.50;;;;;;;;;;4977721;28;20636;-76
2021/12/19 07:29:41;;;;;;;26.08;15.07;;;;;;;;;;4994457;28;20057;-77
2021/12/19 07:32:08;;;;;;;21.35;14.75;;;;;;;;;;5008095;28;20092;-76
2021/12/19 07:34:36;;;;;;;27.05;15.90;;;;;;;;;;5013884;28;20042;-79
2021/12/19 07:37:03;;;;;;;21.77;14.98;;;;;;;;;;4984324;28;20053;-77
2021/12/19 07:42:05;;;;;;;22.67;15.60;;;;;;;;;;5014720;28;20164;-78
2021/12/19 07:44:31;;;;;;;27.92;15.43;;;;;;;;;;4993260;28;20041;-78
2021/12/19 07:46:57;;;;;;;25.40;14.75;;;;;;;;;;5011499;28;20107;-75
2021/12/19 07:49:24;;;;;;;28.20;15.50;;;;;;;;;;5012483;28;20103;-77
2021/12/19 07:51:50;;;;;;;25.38;15.63;;;;;;;;;;4990335;28;20080;-75
2021/12/19 07:54:16;;;;;;;25.90;14.98;;;;;;;;;;4977300;28;20103;-79
2021/12/19 07:56:43;;;;;;;24.92;15.45;;;;;;;;;;5014913;28;20077;-77
2021/12/19 07:59:09;;;;;;;24.08;14.65;;;;;;;;;;5019025;28;20498;-77
2021/12/19 08:01:35;;;;;;;25.08;16.27;;;;;;;;;;4994544;28;20045;-76
2021/12/19 08:04:02;;;;;;;22.20;15.43;;;;;;;;;;5013856;28;20504;-76
2021/12/19 08:06:28;;;;;;;23.90;14.82;;;;;;;;;;5012420;28;20054;-73
2021/12/19 08:08:56;;;;;;;20.80;15.07;;;;;;;;;;5007098;28;20090;-75
2021/12/19 08:11:40;;;;;;;24.85;16.40;;;;;;;;;;4970228;28;20057;-76
2021/12/19 08:14:14;;;;;;;23.98;15.82;;;;;;;;;;4993083;28;20072;-75
2021/12/19 08:16:42;;;;;;;23.15;15.90;;;;;;;;;;5011034;28;20136;-74
2021/12/19 08:19:10;;;;;;;23.10;15.75;;;;;;;;;;4998591;28;20046;-65
2021/12/19 08:21:37;;;;;;;23.17;15.60;;;;;;;;;;5010075;28;20065;-68
2021/12/19 08:24:09;;;;;;;28.67;17.67;;;;;;;;;;5032824;28;20045;-65
2021/12/19 08:26:37;;;;;;;22.23;16.25;;;;;;;;;;5030796;28;20080;-65
2021/12/19 08:29:03;;;;;;;22.02;15.25;;;;;;;;;;5013636;28;20096;-66
2021/12/19 08:31:31;;;;;;;23.17;15.88;;;;;;;;;;5009074;28;20511;-66
2021/12/19 08:33:58;;;;;;;24.25;15.35;;;;;;;;;;5011105;28;20136;-75
2021/12/19 08:36:26;;;;;;;25.10;16.20;;;;;;;;;;5010490;28;20077;-73
2021/12/19 08:38:52;;;;;;;24.33;15.30;;;;;;;;;;5011962;28;20041;-72
2021/12/19 08:41:19;;;;;;;22.10;15.40;;;;;;;;;;5027711;28;20147;-67
2021/12/19 08:43:46;;;;;;;22.77;14.85;;;;;;;;;;5028702;28;20061;-64
2021/12/19 08:46:13;;;;;;;22.52;14.70;;;;;;;;;;5011531;28;20053;-66
2021/12/19 08:48:39;;;;;;;20.73;14.98;;;;;;;;;;4995113;28;20057;-68
2021/12/19 08:51:06;;;;;;;25.73;15.43;;;;;;;;;;5026543;28;20061;-72
2021/12/19 08:53:33;;;;;;;21.40;15.55;;;;;;;;;;5010882;28;20099;-66
2021/12/19 08:55:59;;;;;;;20.70;15.48;;;;;;;;;;5010943;28;20064;-68
2021/12/19 08:58:28;;;;;;;20.67;15.10;;;;;;;;;;5011207;28;20059;-66
2021/12/19 09:00:58;;;;;;;23.63;15.05;;;;;;;;;;4995073;28;20061;-73
2021/12/19 09:03:24;;;;;;;20.65;14.95;;;;;;;;;;4996608;28;20056;-73
2021/12/19 09:05:50;;;;;;;24.15;16.38;;;;;;;;;;5014314;28;20053;-69
2021/12/19 09:08:16;;;;;;;24.80;15.70;;;;;;;;;;5032750;28;20482;-67
2021/12/19 09:10:43;;;;;;;23.92;15.77;;;;;;;;;;5028648;28;20057;-74
2021/12/19 09:13:09;;;;;;;20.73;15.32;;;;;;;;;;5012976;28;20084;-64
2021/12/19 09:15:36;;;;;;;23.73;15.43;;;;;;;;;;5013276;28;20052;-64
2021/12/19 09:18:02;;;;;;;22.05;14.50;;;;;;;;;;5030305;28;20057;-70
2021/12/19 09:20:28;;;;;;;21.00;14.32;;;;;;;;;;5012790;28;20041;-67
2021/12/19 09:22:54;;;;;;;21.35;14.57;;;;;;;;;;5012467;28;20500;-73
2021/12/19 09:25:21;;;;;;;22.67;14.55;;;;;;;;;;5028710;28;20053;-67
2021/12/19 09:27:48;;;;;;;22.35;14.70;;;;;;;;;;5012149;28;20053;-65
2021/12/19 09:30:15;;;;;;;19.13;13.70;;;;;;;;;;5018793;28;20438;-69
2021/12/19 09:32:41;;;;;;;20.42;14.30;;;;;;;;;;5011306;28;20061;-69
2021/12/19 09:35:08;;;;;;;18.23;13.70;;;;;;;;;;5011886;28;20475;-69
2021/12/19 09:37:35;;;;;;;20.83;14.13;;;;;;;;;;4994905;28;20514;-65
2021/12/19 09:40:09;;;;;;;18.40;13.32;;;;;;;;;;5017806;28;20049;-66
2021/12/19 09:42:37;;;;;;;18.90;13.70;;;;;;;;;;5003526;28;20053;-64
2021/12/19 09:45:04;;;;;;;20.50;14.27;;;;;;;;;;5012421;28;20053;-65
2021/12/19 09:47:31;;;;;;;18.75;13.65;;;;;;;;;;5028239;28;20463;-66
2021/12/19 09:49:57;;;;;;;19.52;14.82;;;;;;;;;;5010111;28;20183;-65
2021/12/19 09:52:24;;;;;;;23.63;14.48;;;;;;;;;;4992627;28;20064;-74
2021/12/19 09:54:50;;;;;;;18.25;13.63;;;;;;;;;;4994466;28;20123;-68
2021/12/19 09:57:16;;;;;;;18.60;14.57;;;;;;;;;;5008974;28;20093;-66
2021/12/19 09:59:43;;;;;;;16.73;13.05;;;;;;;;;;5028228;28;20061;-70
2021/12/19 10:02:10;;;;;;;18.65;13.07;;;;;;;;;;5032050;28;20050;-70
2021/12/19 10:04:39;;;;;;;15.65;11.15;;;;;;;;;;4998539;28;20049;-67
2021/12/19 10:07:18;;;;;;;14.10;11.75;;;;;;;;;;5034243;28;20050;-65
2021/12/19 10:10:03;;;;;;;18.80;12.70;;;;;;;;;;5032236;28;20050;-68
2021/12/19 10:15:07;;;;;;;15.88;11.02;;;;;;;;;;5033090;28;19928;-68
2021/12/19 10:17:34;;;;;;;16.52;10.95;;;;;;;;;;5016367;28;20057;-66
2021/12/19 10:20:04;;;;;;;14.60;11.00;;;;;;;;;;5016633;28;20155;-68
2021/12/19 10:22:30;;;;;;;14.07;10.30;;;;;;;;;;5031259;28;20053;-69
2021/12/19 10:25:10;;;;;;;12.75;10.35;;;;;;;;;;5011027;28;20045;-66
2021/12/19 10:27:41;;;;;;;14.07;10.65;;;;;;;;;;5029512;28;20052;-64
2021/12/19 10:30:12;;;;;;;17.20;11.35;;;;;;;;;;5017031;28;20049;-67
2021/12/19 10:32:50;;;;;;;15.88;10.38;;;;;;;;;;5015893;28;20145;-65
2021/12/19 10:35:25;;;;;;;14.88;10.38;;;;;;;;;;5032426;28;20075;-71
2021/12/19 10:37:52;;;;;;;15.23;10.50;;;;;;;;;;5015350;28;20395;-66
2021/12/19 10:40:19;;;;;;;15.10;10.32;;;;;;;;;;5031602;28;20054;-66
2021/12/19 10:42:52;;;;;;;14.63;10.20;;;;;;;;;;5028210;28;20084;-66
2021/12/19 10:45:34;;;;;;;18.10;10.63;;;;;;;;;;4997667;28;20115;-66
2021/12/19 10:48:22;;;;;;;14.73;10.45;;;;;;;;;;5029669;28;20132;-72
2021/12/19 10:50:53;;;;;;;13.25;10.02;;;;;;;;;;5013206;28;20061;-69
2021/12/19 10:53:25;;;;;;;11.93;8.63;;;;;;;;;;5012232;28;20060;-68
2021/12/19 10:55:53;;;;;;;11.38;8.90;;;;;;;;;;5006361;28;20072;-66
2021/12/19 10:58:24;;;;;;;13.68;8.70;;;;;;;;;;4995240;28;20061;-66
2021/12/19 11:01:21;;;;;;;13.27;9.40;;;;;;;;;;4994732;28;20050;-69
2021/12/19 11:03:53;;;;;;;13.57;9.63;;;;;;;;;;5024970;28;20499;-77
2021/12/19 11:06:27;;;;;;;12.32;9.00;;;;;;;;;;5007860;28;20053;-72
2021/12/19 11:08:54;;;;;;;;;;;;;;;;;;5030798;28;20050;-66
2021/12/19 11:11:34;;;;;;;12.85;9.35;;;;;;;;;;5030482;28;19921;-68
2021/12/19 11:14:03;;;;;;;12.88;9.25;;;;;;;;;;5031964;28;20060;-68
2021/12/19 11:16:31;;;;;;;15.25;9.35;;;;;;;;;;4993493;28;20057;-68
2021/12/19 11:18:57;;;;;;;13.13;10.82;;;;;;;;;;5012375;28;20049;-68
2021/12/19 11:21:23;;;;;;;12.98;9.45;;;;;;;;;;5013087;28;20064;-67
2021/12/19 11:23:49;;;;;;;14.75;8.77;;;;;;;;;;5033304;28;20045;-68
2021/12/19 11:26:19;;;;;;;12.10;9.70;;;;;;;;;;4996997;28;20486;-69
2021/12/19 11:28:48;;;;;;;17.35;9.75;;;;;;;;;;5032352;28;20049;-69
2021/12/19 11:31:15;;;;;;;13.27;9.02;;;;;;;;;;5015817;28;20119;-70
2021/12/19 11:34:00;;;;;;;15.10;9.07;;;;;;;;;;5012641;28;20501;-73
2021/12/19 11:36:30;;;;;;;13.48;9.68;;;;;;;;;;5012940;28;20455;-73
2021/12/19 11:39:00;;;;;;;12.48;8.43;;;;;;;;;;4977859;28;20052;-73
2021/12/19 11:41:27;;;;;;;11.63;7.70;;;;;;;;;;4977811;28;20084;-74
2021/12/19 11:43:56;;;;;;;14.68;8.02;;;;;;;;;;4976966;28;20041;-77
2021/12/19 11:46:42;;;;;;;16.17;8.60;;;;;;;;;;4977329;28;20050;-74
2021/12/19 11:49:18;;;;;;;15.90;8.70;;;;;;;;;;5015581;28;20104;-74
2021/12/19 11:51:45;;;;;;;11.25;7.22;;;;;;;;;;4974307;28;20072;-66
2021/12/19 11:54:15;;;;;;;10.30;7.97;;;;;;;;;;5010577;28;20056;-68
2021/12/19 11:57:05;;;;;;;9.82;7.13;;;;;;;;;;5027418;28;20060;-65
2021/12/19 11:59:31;;;;;;;11.90;8.57;;;;;;;;;;5011963;28;20057;-66
2021/12/19 12:02:24;;;;;;;12.77;8.38;;;;;;;;;;5028961;28;20044;-69
2021/12/19 12:05:15;;;;;;;11.77;7.65;;;;;;;;;;5027183;28;20107;-67
2021/12/19 12:08:08;;;;;;;11.13;8.20;;;;;;;;;;5003865;28;20057;-70
2021/12/19 12:10:56;;;;;;;11.90;7.85;;;;;;;;;;4993124;28;20052;-69
2021/12/19 12:13:33;;;;;;;15.35;7.63;;;;;;;;;;5004231;28;20049;-74
2021/12/19 12:18:43;;;;;;;11.70;6.38;;;;;;;;;;5010283;28;20057;-66
2021/12/19 12:21:47;;;;;;;10.70;6.90;;;;;;;;;;5026947;28;20057;-68
2021/12/19 12:24:17;;;;;;;10.48;7.00;;;;;;;;;;5008390;28;20045;-70
2021/12/19 12:26:48;;;;;;;10.75;7.20;;;;;;;;;;5011965;28;20110;-65
2021/12/19 12:29:15;;;;;;;14.18;6.22;;;;;;;;;;5007796;28;20056;-65
2021/12/19 12:31:43;;;;;;;7.53;5.60;;;;;;;;;;5026142;28;20057;-66
2021/12/19 12:34:12;;;;;;;7.68;5.10;;;;;;;;;;5030463;28;20482;-68
2021/12/19 12:36:40;;;;;;;9.52;6.38;;;;;;;;;;5028094;28;20046;-65
2021/12/19 12:39:15;;;;;;;12.20;7.20;;;;;;;;;;5007741;28;20060;-69
2021/12/19 12:41:58;;;;;;;10.90;6.90;;;;;;;;;;5007851;28;20055;-69
2021/12/19 12:44:25;;;;;;;11.45;6.68;;;;;;;;;;5011622;28;20054;-66
2021/12/19 12:46:51;;;;;;;11.10;7.05;;;;;;;;;;5009873;28;20068;-67
2021/12/19 12:49:28;;;;;;;11.82;7.28;;;;;;;;;;5031240;28;20103;-70
2021/12/19 12:51:58;;;;;;;13.00;7.38;;;;;;;;;;4994363;28;20140;-73
2021/12/19 12:54:35;;;;;;;9.98;7.15;;;;;;;;;;5011936;28;20052;-79
2021/12/19 12:57:08;;;;;;;20.20;12.45;;;;;;;;;;5009704;28;20184;-67
2021/12/19 12:59:40;;;;;;;13.30;8.70;;;;;;;;;;5026884;28;20050;-66
2021/12/19 13:04:43;;;;;;;14.13;6.72;;;;;;;;;;5026373;28;20421;-70
2021/12/19 13:07:21;;;;;;;11.68;7.03;;;;;;;;;;5024664;28;20106;-70
2021/12/19 13:10:02;;;;;;;14.43;6.97;;;;;;;;;;5024762;28;20060;-65
2021/12/19 13:12:33;;;;;;;11.23;6.95;;;;;;;;;;5008058;28;20060;-73
2021/12/19 13:15:03;;;;;;;10.10;6.30;;;;;;;;;;5005183;28;20114;-71
2021/12/19 13:17:38;;;;;;;12.88;6.82;;;;;;;;;;4989168;28;20446;-68
2021/12/19 13:20:11;;;;;;;10.43;6.72;;;;;;;;;;5002965;28;20059;-66
2021/12/19 13:22:56;;;;;;;14.30;7.20;;;;;;;;;;5021864;28;20057;-70
2021/12/19 13:25:27;;;;;;;13.05;7.82;;;;;;;;;;5021225;28;20268;-74
2021/12/19 13:27:54;;;;;;;11.30;8.00;;;;;;;;;;5004862;28;20049;-67
2021/12/19 13:30:25;;;;;;;11.10;7.95;;;;;;;;;;5026530;28;20096;-67
2021/12/19 13:32:57;;;;;;;14.02;7.85;;;;;;;;;;5028498;28;20056;-66
2021/12/19 13:35:29;;;;;;;11.77;7.75;;;;;;;;;;4992626;28;20061;-76
2021/12/19 13:37:56;;;;;;;11.40;7.20;;;;;;;;;;5024295;28;20054;-72
2021/12/19 13:40:28;;;;;;;12.07;7.18;;;;;;;;;;4992061;28;20042;-77
2021/12/19 13:43:00;;;;;;;10.15;7.38;;;;;;;;;;5004988;28;20152;-67
2021/12/19 13:45:28;;;;;;;12.63;8.32;;;;;;;;;;5009478;28;20045;-68
2021/12/19 13:47:57;;;;;;;13.65;8.23;;;;;;;;;;5012172;28;20056;-75
2021/12/19 13:50:24;;;;;;;13.60;8.45;;;;;;;;;;5027648;28;20061;-72
2021/12/19 13:52:51;;;;;;;13.25;8.07;;;;;;;;;;5026190;28;20057;-79
2021/12/19 13:55:17;;;;;;;15.95;9.00;;;;;;;;;;5026641;28;20063;-68
2021/12/19 13:57:45;;;;;;;19.92;11.68;;;;;;;;;;5011541;28;20103;-65
2021/12/19 14:00:28;;;;;;;14.60;9.15;;;;;;;;;;5015829;28;20053;-65
2021/12/19 14:02:55;;;;;;;13.07;8.50;;;;;;;;;;5030028;28;20060;-69
2021/12/19 14:05:35;;;;;;;15.00;9.90;;;;;;;;;;5029389;28;20179;-70
2021/12/19 14:08:23;;;;;;;14.05;9.40;;;;;;;;;;5024842;28;20058;-67
2021/12/19 14:11:05;;;;;;;14.70;9.85;;;;;;;;;;5023895;28;20058;-72
2021/12/19 14:13:35;;;;;;;16.65;10.98;;;;;;;;;;5005892;28;20050;-67
2021/12/19 14:16:05;;;;;;;16.25;10.13;;;;;;;;;;5013430;28;20388;-65
2021/12/19 14:18:44;;;;;;;15.43;11.32;;;;;;;;;;5007703;28;20053;-73
2021/12/19 14:21:31;;;;;;;14.27;9.95;;;;;;;;;;5013983;28;21681;-71
2021/12/19 14:24:17;;;;;;;13.40;9.73;;;;;;;;;;5021566;28;20056;-79
2021/12/19 14:26:50;;;;;;;15.05;10.15;;;;;;;;;;5014504;28;20045;-66
2021/12/19 14:29:21;;;;;;;16.52;9.45;;;;;;;;;;5014812;28;20057;-67
2021/12/19 14:32:01;;;;;;;15.57;10.35;;;;;;;;;;5034399;28;20055;-69
2021/12/19 14:34:29;;;;;;;16.10;9.77;;;;;;;;;;5016493;28;20053;-67
2021/12/19 14:37:10;;;;;;;14.85;10.07;;;;;;;;;;5037119;28;20426;-65
2021/12/19 14:39:36;;;;;;;17.33;10.40;;;;;;;;;;5035141;28;20254;-65
2021/12/19 14:42:16;;;;;;;15.57;10.70;;;;;;;;;;5001591;28;20061;-66
2021/12/19 14:44:57;;;;;;;13.95;10.43;;;;;;;;;;5035774;28;20145;-66
2021/12/19 14:47:34;;;;;;;15.90;9.20;;;;;;;;;;5017788;28;20133;-67
2021/12/19 14:50:16;;;;;;;18.85;10.05;;;;;;;;;;4998772;28;20072;-65
2021/12/19 14:53:04;;;;;;;14.27;10.82;;;;;;;;;;5034449;28;20067;-67
2021/12/19 14:55:34;;;;;;;17.38;10.00;;;;;;;;;;4995880;28;20048;-75
2021/12/19 14:58:02;;;;;;;13.63;9.10;;;;;;;;;;5008674;28;20133;-73
2021/12/19 15:00:30;;;;;;;11.88;9.45;;;;;;;;;;5024984;28;20057;-69
2021/12/19 15:02:56;;;;;;;12.23;9.93;;;;;;;;;;5020687;28;20814;-76
2021/12/19 15:05:23;;;;;;;13.88;8.77;;;;;;;;;;5007018;28;20053;-73
2021/12/19 15:07:49;;;;;;;12.20;8.60;;;;;;;;;;5004443;28;20044;-69
2021/12/19 15:10:17;;;;;;;12.05;7.95;;;;;;;;;;5024830;28;20103;-69
2021/12/19 15:12:45;;;;;;;12.80;8.38;;;;;;;;;;4996679;28;20472;-67
2021/12/19 15:15:12;;;;;;;12.90;9.10;;;;;;;;;;5025794;28;20489;-67
2021/12/19 15:17:38;;;;;;;15.18;9.63;;;;;;;;;;5012000;28;20054;-70
2021/12/19 15:20:05;;;;;;;13.30;8.65;;;;;;;;;;5024317;28;20089;-70
2021/12/19 15:22:33;;;;;;;10.30;6.72;;;;;;;;;;5019274;28;20130;-66
2021/12/19 15:24:59;;;;;;;8.63;6.53;;;;;;;;;;4991050;28;20072;-72
2021/12/19 15:27:25;;;;;;;10.65;7.50;;;;;;;;;;5008636;28;20052;-74
2021/12/19 15:29:51;;;;;;;10.00;6.97;;;;;;;;;;5006109;28;20053;-68
2021/12/19 15:32:17;;;;;;;10.73;7.55;;;;;;;;;;5022040;28;20503;-72
2021/12/19 15:34:43;;;;;;;11.75;7.10;;;;;;;;;;5005088;28;20053;-77
2021/12/19 15:37:10;;;;;;;9.85;6.82;;;;;;;;;;4991297;28;20054;-68
2021/12/19 15:39:36;;;;;;;11.90;6.65;;;;;;;;;;5024665;28;20041;-66
2021/12/19 15:42:03;;;;;;;12.38;6.82;;;;;;;;;;5025412;28;20128;-75
2021/12/19 15:44:30;;;;;;;12.35;8.05;;;;;;;;;;5025681;28;20433;-69
2021/12/19 15:46:58;;;;;;;13.30;7.88;;;;;;;;;;5004884;28;20565;-67